createdAt,value
2019-01-12T00:02:21.687Z,13.13
2019-01-12T00:07:31.001Z,13.23
2019-01-12T00:12:35.070Z,14.13
2019-01-12T00:17:40.405Z,13.67
2019-01-12T00:22:44.022Z,14.03
2019-01-12T00:27:47.626Z,13.10
2019-01-12T00:32:51.433Z,11.70
2019-01-12T00:37:55.039Z,14.60
2019-01-12T00:43:03.033Z,10.70
2019-01-12T00:48:06.695Z,12.80
2019-01-12T00:53:10.566Z,12.90
2019-01-12T00:58:17.155Z,12.90
2019-01-12T01:03:20.990Z,11.70
2019-01-12T01:08:36.171Z,13.80
2019-01-12T01:13:41.461Z,11.70
2019-01-12T01:18:45.087Z,13.20
2019-01-12T01:23:48.701Z,14.00
2019-01-12T01:28:54.374Z,14.10
2019-01-12T01:34:00.571Z,14.20
2019-01-12T01:39:07.006Z,13.10
2019-01-12T01:44:16.133Z,13.50
2019-01-12T01:49:19.745Z,14.93
2019-01-12T01:54:26.329Z,11.23
2019-01-12T01:59:33.488Z,14.77
2019-01-12T02:04:40.039Z,13.60
2019-01-12T02:09:46.384Z,13.80
2019-01-12T02:14:49.997Z,13.73
2019-01-12T02:19:55.263Z,13.73
2019-01-12T02:25:00.052Z,12.97
2019-01-12T02:30:16.299Z,13.23
2019-01-12T02:35:22.725Z,12.13
2019-01-12T02:40:29.239Z,11.10
2019-01-12T02:45:38.586Z,12.57
2019-01-12T02:50:51.975Z,12.50
2019-01-12T02:56:01.611Z,11.87
2019-01-12T03:01:06.932Z,11.53
2019-01-12T03:06:10.683Z,11.13
2019-01-12T03:11:20.354Z,11.70
2019-01-12T03:16:25.844Z,14.07
2019-01-12T03:21:29.786Z,12.27
2019-01-12T03:26:35.043Z,12.87
2019-01-12T03:31:38.643Z,12.77
2019-01-12T03:36:42.628Z,13.60
2019-01-12T03:41:52.181Z,12.93
2019-01-12T03:46:57.564Z,12.53
2019-01-12T03:52:03.939Z,12.80
2019-01-12T03:57:10.240Z,12.20
2019-01-12T04:02:16.786Z,12.20
2019-01-12T04:07:20.408Z,12.37
2019-01-12T04:12:25.650Z,12.53
2019-01-12T04:17:29.269Z,12.37
2019-01-12T04:22:32.886Z,12.70
2019-01-12T04:27:39.686Z,11.70
2019-01-12T04:32:46.604Z,12.27
2019-01-12T04:37:52.969Z,12.43
2019-01-12T04:43:02.350Z,11.77
2019-01-12T04:48:06.044Z,12.37
2019-01-12T04:53:12.387Z,13.27
2019-01-12T04:58:16.271Z,11.30
2019-01-12T05:03:21.855Z,12.50
2019-01-12T05:08:31.515Z,12.30
2019-01-12T05:13:36.748Z,12.70
2019-01-12T05:18:50.969Z,12.50
2019-01-12T05:23:54.583Z,12.63
2019-01-12T05:29:02.241Z,13.87
2019-01-12T05:34:07.854Z,13.10
2019-01-12T05:39:15.155Z,11.40
2019-01-12T05:44:21.774Z,11.90
2019-01-12T05:49:30.987Z,11.17
2019-01-12T05:54:34.602Z,11.00
2019-01-12T05:59:44.259Z,12.33
2019-01-12T06:04:48.121Z,12.40
2019-01-12T06:09:54.383Z,12.00
2019-01-12T06:14:59.649Z,12.70
2019-01-12T06:20:04.668Z,11.33
2019-01-12T06:25:14.322Z,10.50
2019-01-12T06:30:18.946Z,13.13
2019-01-12T06:35:22.879Z,12.67
2019-01-12T06:40:31.141Z,11.50
2019-01-12T06:45:35.892Z,9.67
2019-01-12T06:50:45.433Z,10.50
2019-01-12T06:55:49.453Z,10.87
2019-01-12T07:00:56.009Z,11.07
2019-01-12T07:06:02.322Z,12.20
2019-01-12T07:11:07.462Z,10.97
2019-01-12T07:16:11.135Z,9.70
2019-01-12T07:21:19.381Z,11.10
2019-01-12T07:26:33.445Z,11.97
2019-01-12T07:31:32.611Z,13.57
2019-01-12T07:36:36.498Z,12.53
2019-01-12T07:41:40.147Z,14.03
2019-01-12T07:46:46.704Z,14.37
2019-01-12T07:51:53.274Z,13.50
2019-01-12T07:56:57.462Z,13.73
2019-01-12T08:02:01.141Z,13.10
2019-01-12T08:07:05.733Z,12.93
2019-01-12T08:12:09.411Z,13.67
2019-01-12T08:17:15.798Z,15.47
2019-01-12T08:22:19.391Z,14.70
2019-01-12T08:27:23.003Z,14.77
2019-01-12T08:32:28.884Z,15.37
2019-01-12T08:37:33.288Z,14.43
2019-01-12T08:42:37.738Z,15.80
2019-01-12T08:47:41.504Z,15.50
2019-01-12T08:52:45.306Z,14.20
2019-01-12T08:57:49.066Z,14.50
2019-01-12T09:02:52.720Z,14.20
2019-01-12T09:07:56.558Z,13.77
2019-01-12T09:13:00.225Z,14.80
2019-01-12T09:18:08.505Z,11.60
2019-01-12T09:23:14.617Z,14.03
2019-01-12T09:28:18.222Z,13.50
2019-01-12T09:33:21.955Z,13.70
2019-01-12T09:38:25.621Z,12.80
2019-01-12T09:43:32.197Z,13.73
2019-01-12T09:48:36.738Z,13.07
2019-01-12T09:53:40.429Z,13.53
2019-01-12T09:58:49.996Z,13.20
2019-01-12T10:03:53.640Z,13.27
2019-01-12T10:08:57.262Z,12.97
2019-01-12T10:14:00.862Z,11.67
2019-01-12T10:19:06.980Z,10.80
2019-01-12T10:24:10.668Z,12.37
2019-01-12T10:29:15.884Z,12.13
2019-01-12T10:34:22.602Z,11.20
2019-01-12T10:39:26.225Z,11.10
2019-01-12T10:44:29.847Z,12.90
2019-01-12T10:49:36.573Z,12.73
2019-01-12T10:54:40.178Z,11.90
2019-01-12T10:59:44.915Z,11.00
2019-01-12T11:04:48.560Z,12.30
2019-01-12T11:09:54.890Z,10.70
2019-01-12T11:14:58.566Z,11.20
2019-01-12T11:20:02.453Z,11.00
2019-01-12T11:25:09.546Z,11.80
2019-01-12T11:30:20.492Z,12.37
2019-01-12T11:35:24.094Z,12.87
2019-01-12T11:40:27.921Z,11.83
2019-01-12T11:45:31.556Z,12.00
2019-01-12T11:50:35.180Z,12.50
2019-01-12T11:55:39.667Z,14.20
2019-01-12T12:00:43.314Z,13.00
2019-01-12T12:05:46.930Z,12.60
2019-01-12T12:10:50.542Z,12.60
2019-01-12T12:15:54.257Z,12.43
2019-01-12T12:21:00.851Z,14.10
2019-01-12T12:26:05.405Z,13.83
2019-01-12T12:31:09.602Z,12.90
2019-01-12T12:36:16.279Z,14.03
2019-01-12T12:41:19.908Z,15.40
2019-01-12T12:46:26.534Z,13.97
2019-01-12T12:51:30.162Z,12.37
2019-01-12T12:56:33.950Z,13.80
2019-01-12T13:01:38.687Z,11.90
2019-01-12T13:06:42.382Z,12.60
2019-01-12T13:11:53.107Z,12.07
2019-01-12T13:22:12.266Z,12.60
2019-01-12T13:27:16.225Z,9.37
2019-01-12T13:32:22.743Z,12.80
2019-01-12T13:37:26.350Z,12.93
2019-01-12T13:42:29.967Z,12.57
2019-01-12T13:47:33.604Z,12.93
2019-01-12T13:52:37.414Z,12.50
2019-01-12T13:57:47.449Z,11.90
2019-01-12T14:02:46.630Z,13.07
2019-01-12T14:07:56.111Z,12.00
2019-01-12T14:12:57.521Z,12.10
2019-01-12T14:18:02.744Z,13.50
2019-01-12T14:23:09.333Z,12.23
2019-01-12T14:28:12.939Z,12.73
2019-01-12T14:33:20.776Z,12.50
2019-01-12T14:38:24.381Z,12.17
2019-01-12T14:43:29.615Z,12.37
2019-01-12T14:48:33.211Z,12.33
2019-01-12T14:53:36.818Z,11.90
2019-01-12T14:58:44.446Z,12.30
2019-01-12T15:03:47.361Z,11.53
2019-01-12T15:08:50.967Z,12.50
2019-01-12T15:13:54.765Z,12.40
2019-01-12T15:18:58.407Z,13.00
2019-01-12T15:24:02.039Z,12.63
2019-01-12T15:29:05.852Z,10.67
2019-01-12T15:34:12.674Z,11.90
2019-01-12T15:39:16.613Z,11.70
2019-01-12T15:44:20.505Z,12.60
2019-01-12T15:49:24.107Z,13.07
2019-01-12T15:54:27.835Z,12.63
2019-01-12T15:59:31.554Z,13.47
2019-01-12T16:04:35.191Z,12.70
2019-01-12T16:09:39.310Z,11.43
2019-01-12T16:14:42.930Z,10.40
2019-01-12T16:19:49.486Z,11.30
2019-01-12T16:24:54.117Z,11.90
2019-01-12T16:29:57.726Z,12.03
2019-01-12T16:45:25.348Z,10.27
2019-01-12T16:50:35.006Z,10.27
2019-01-12T16:55:41.500Z,9.30
2019-01-12T17:00:45.144Z,9.20
2019-01-12T17:05:48.758Z,8.07
2019-01-12T17:10:58.019Z,6.40
2019-01-12T17:16:01.908Z,7.10
2019-01-12T17:21:08.525Z,6.70
2019-01-12T17:26:14.862Z,7.20
2019-01-12T17:31:18.538Z,6.23
2019-01-12T17:36:25.322Z,7.00
2019-01-12T17:41:38.047Z,6.97
2019-01-12T17:46:37.357Z,6.93
2019-01-12T17:51:41.247Z,6.80
2019-01-12T17:56:47.799Z,7.77
2019-01-12T18:01:51.408Z,7.13
2019-01-12T18:06:56.640Z,6.70
2019-01-12T18:12:02.172Z,6.77
2019-01-12T18:17:08.759Z,6.20
2019-01-12T18:22:12.505Z,5.27
2019-01-12T18:27:18.122Z,5.90
2019-01-12T18:32:21.810Z,5.60
2019-01-12T18:37:25.584Z,4.10
2019-01-12T18:42:30.840Z,4.80
2019-01-12T18:47:34.603Z,4.80
2019-01-12T18:52:38.235Z,5.20
2019-01-12T18:57:42.178Z,4.80
2019-01-12T19:02:46.260Z,4.50
2019-01-12T19:07:56.542Z,4.43
2019-01-12T19:13:00.189Z,4.77
2019-01-12T19:18:03.987Z,4.90
2019-01-12T19:23:07.667Z,4.03
2019-01-12T19:28:11.275Z,4.00
2019-01-12T19:33:15.210Z,4.90
2019-01-12T19:38:27.754Z,4.70
2019-01-12T19:43:33.152Z,5.57
2019-01-12T19:48:39.762Z,5.13
2019-01-12T19:53:46.094Z,5.53
2019-01-12T19:58:56.514Z,4.53
2019-01-12T20:04:00.138Z,4.90
2019-01-12T20:09:06.915Z,5.97
2019-01-12T20:14:13.738Z,5.27
2019-01-12T20:19:19.174Z,5.40
2019-01-12T20:24:25.514Z,5.83
2019-01-12T20:29:30.738Z,4.00
2019-01-12T20:34:37.222Z,5.40
2019-01-12T20:40:18.213Z,6.20
2019-01-12T20:45:36.543Z,6.13
2019-01-12T20:50:52.089Z,5.30
2019-01-12T20:56:18.155Z,4.73
2019-01-12T21:01:39.919Z,4.40
2019-01-12T21:07:05.898Z,3.97
2019-01-12T21:12:18.261Z,3.90
2019-01-12T21:17:21.908Z,4.17
2019-01-12T21:22:27.094Z,3.63
2019-01-12T21:27:36.720Z,2.63
2019-01-12T21:32:42.306Z,3.17
2019-01-12T21:37:45.590Z,2.57
2019-01-12T21:42:53.249Z,2.80
2019-01-12T21:47:59.614Z,2.90
2019-01-12T21:53:07.593Z,2.80
2019-01-12T21:58:11.215Z,2.77
2019-01-12T22:03:18.100Z,2.33
2019-01-12T22:08:21.694Z,2.20
2019-01-12T22:13:25.311Z,2.33
2019-01-12T22:18:32.384Z,2.60
2019-01-12T22:23:37.638Z,2.60
2019-01-12T22:28:41.254Z,2.33
2019-01-12T22:33:47.903Z,2.60
2019-01-12T22:38:51.516Z,2.20
2019-01-12T22:43:58.387Z,1.70
2019-01-12T22:49:01.993Z,1.60
2019-01-12T22:54:07.306Z,1.10
2019-01-12T22:59:10.929Z,1.60
2019-01-12T23:04:17.590Z,1.70
2019-01-12T23:09:27.014Z,1.93
2019-01-12T23:14:33.122Z,1.43
2019-01-12T23:19:39.194Z,2.10
2019-01-12T23:24:49.973Z,1.60
2019-01-12T23:29:53.553Z,1.10
2019-01-12T23:35:10.864Z,1.67
2019-01-12T23:40:15.021Z,1.80
2019-01-12T23:45:18.717Z,1.50
2019-01-12T23:50:25.226Z,1.70
2019-01-12T23:55:33.027Z,1.10
